Waterville, WA (98858)

7:03 AM PST on February 07, 2016 (GMT -0800)
Waterville, WA - Titan Hardware | | Change Station
CLOSE
Current Station
Personal Weather Station
Location: Waterville, WA
Elevation: 2618 ft
Nearby Weather Stations

Elev 2618 ft 47.64 °N, 120.07 °W | Updated 15 seconds ago

Clear
Clear
18.9 °F
Feels Like 19 °F
N
0.0
Wind Variable Wind from West
Gusts 0.0 mph

Today
High -- | Low -- °F
--% Chance of Precip.
Yesterday
High -- | Low -- °F
Precip. -- in
Pressure 30.63 in
Visibility 10.0 miles
Clouds Clear
Windchill 19 °F
Dew Point 13 °F
Humidity 77%
Rainfall 0.00 in
Snow Depth Not available.
7:18 AM 5:09 PM
Waning Crescent, 1% visible
METAR KEAT 071455Z AUTO 00000KT 10SM CLR M01/M03 A3059 RMK AO2 SLP372 T10111033 51013
Pressure 30.63 in
Visibility 10.0 miles
Clouds Clear
Windchill 19 °F
Dew Point 13 °F
Humidity 77%
Rainfall 0.00 in
Snow Depth Not available.
7:18 AM 5:09 PM
Waning Crescent, 1% visible
METAR KEAT 071455Z AUTO 00000KT 10SM CLR M01/M03 A3059 RMK AO2 SLP372 T10111033 51013

10-Day Weather Forecast

Almanac

Astronomy

Feb. 07, 2016 Rise Set
Actual Time
Civil Twilight
Nautical Twilight
Astronomical Twilight
Moon
Length of Visible Light
Length of Day
Tomorrow will be .
, % of the Moon is Illuminated

Today's Extremes

State Highs State Lows

Community

WunderPhotos

Upload Photos

1,891,211 photos uploaded!

WunderBlog® & News

Nearby

Air Quality

  Air Quality AQ Index Pollutant
Not available.

Snow Depth

Station Depth Elevation

Earthquake Activity

City Distance Mag. Time & Date
Minimum magnitude displayed is 2.5.

Coastal Water Temperatures

Place Temperature

Stations

Nearby Weather Stations

Station Location Temp. Windchill Dew Point Humidity Wind Precip. Elev Updated Type
                   

Watches & Warnings

There are currently no watches in effect.